Janesville, Minnesota
Current Conditions -  °F | °C
As of 5:15 PM on Thursday 27 Nov 2014 (Local Time) from KACQ Reporting Station
Clear Clear  
Wind Chill: -6°   Ceiling: Unl
Heat Index: -6°   Visibility: 10mi
Dew Point: -13°   Wind: 0mph
Humidity: 71%   Direction: NA
Pressure: 30.4"   Gusts: NA
Location:  44.12°N, 93.71°W
Report Text: KACQ 272315Z AUTO 00000KT 10SM CLR M21/M25 A3040 RMK AO2
Loading
Personal Weather Stations






























Interactive Weather Map New forecast layout! Learn more

10-Day Weather Forecast

Advertisements
Track Severe Weather on mobile